Time;durP1;ratioP1;P1;durP2;ratioP2;P2;SDS_P1;SDS_P2;PMS_P1;PMS_P2;Temp;Humidity;BMP_temperature;BMP_pressure;BME280_temperature;BME280_humidity;BME280_pressure;Samples;Min_cycle;Max_cycle;Signal;HPM_P1;HPM_P2
2021/08/18 00:00:00;;;;;;;;;;;21.20;57.90;;;;;;5034266;28;19921;-62
2021/08/18 00:02:25;;;;;;;;;;;21.20;57.90;;;;;;5034390;28;20243;-62
2021/08/18 00:04:51;;;;;;;;;;;21.20;57.90;;;;;;5034508;28;20648;-61
2021/08/18 00:07:17;;;;;;;;;;;21.10;57.90;;;;;;5016794;28;20393;-61
2021/08/18 00:09:43;;;;;;;;;;;21.10;57.90;;;;;;5035842;28;19943;-61
2021/08/18 00:12:08;;;;;;;;;;;21.10;57.90;;;;;;5036468;28;20407;-62
2021/08/18 00:14:33;;;;;;;;;;;21.10;57.80;;;;;;5029395;28;19924;-61
2021/08/18 00:17:00;;;;;;;;;;;21.10;57.80;;;;;;5036222;28;19921;-61
2021/08/18 00:19:25;;;;;;;;;;;21.10;57.90;;;;;;5035412;28;19917;-61
2021/08/18 00:21:50;;;;;;;;;;;21.10;57.90;;;;;;5017694;28;20416;-62
2021/08/18 00:24:16;;;;;;;;;;;21.10;57.80;;;;;;5035670;28;19921;-61
2021/08/18 00:26:41;;;;;;;;;;;21.10;57.80;;;;;;5036063;28;19920;-61
2021/08/18 00:29:07;;;;;;;;;;;21.10;57.80;;;;;;5035704;28;19928;-61
2021/08/18 00:31:32;;;;;;;;;;;21.10;57.80;;;;;;5032132;28;20415;-60
2021/08/18 00:33:58;;;;;;;;;;;21.10;57.80;;;;;;5026317;28;19916;-61
2021/08/18 00:36:23;;;;;;;;;;;21.10;57.80;;;;;;5015060;28;19917;-62
2021/08/18 00:38:49;;;;;;;;;;;21.10;57.80;;;;;;5032535;28;20380;-61
2021/08/18 00:41:14;;;;;;;;;;;21.10;57.80;;;;;;5033840;28;19916;-61
2021/08/18 00:43:40;;;;;;;;;;;21.10;57.90;;;;;;5032665;28;19927;-60
2021/08/18 00:46:05;;;;;;;;;;;21.10;57.80;;;;;;5012565;28;19927;-60
2021/08/18 00:48:31;;;;;;;;;;;21.10;57.80;;;;;;5032618;28;19964;-61
2021/08/18 00:50:56;;;;;;;;;;;21.10;57.80;;;;;;5033306;28;19917;-61
2021/08/18 00:53:22;;;;;;;;;;;21.10;57.80;;;;;;5015119;28;19920;-61
2021/08/18 00:55:47;;;;;;;;;;;21.10;57.80;;;;;;5034283;28;19920;-61
2021/08/18 00:58:13;;;;;;;;;;;21.10;57.90;;;;;;5033044;28;19923;-61
2021/08/18 01:00:38;;;;;;;;;;;21.10;57.80;;;;;;5033595;28;20127;-61
2021/08/18 01:03:03;;;;;;;;;;;21.10;57.90;;;;;;5033953;28;20186;-61
2021/08/18 01:05:29;;;;;;;;;;;21.00;57.80;;;;;;5034190;28;19912;-61
2021/08/18 01:07:55;;;;;;;;;;;21.10;57.80;;;;;;5033207;28;19920;-61
2021/08/18 01:10:22;;;;;;;;;;;21.10;57.90;;;;;;5033469;28;20348;-61
2021/08/18 01:12:47;;;;;;;;;;;21.10;57.80;;;;;;5034655;28;20467;-61
2021/08/18 01:15:13;;;;;;;;;;;21.00;57.80;;;;;;5033331;28;19929;-62
2021/08/18 01:17:40;;;;;;;;;;;21.00;57.80;;;;;;5033702;28;19959;-61
2021/08/18 01:20:05;;;;;;;;;;;21.10;57.90;;;;;;5032439;28;20393;-61
2021/08/18 01:22:31;;;;;;;;;;;21.10;57.80;;;;;;5032466;28;20011;-60
2021/08/18 01:24:56;;;;;;;;;;;21.10;57.90;;;;;;5015853;28;20297;-61
2021/08/18 01:27:22;;;;;;;;;;;21.00;57.80;;;;;;5032744;28;19921;-61
2021/08/18 01:29:47;;;;;;;;;;;21.00;57.80;;;;;;5034047;28;19913;-60
2021/08/18 01:32:13;;;;;;;;;;;21.10;57.90;;;;;;5033011;28;20356;-61
2021/08/18 01:34:38;;;;;;;;;;;21.00;58.40;;;;;;5032557;28;19956;-61
2021/08/18 01:37:04;;;;;;;;;;;21.00;57.90;;;;;;5035468;28;19939;-60
2021/08/18 01:39:29;;;;;;;;;;;21.00;57.90;;;;;;5035748;28;20397;-60
2021/08/18 01:41:55;;;;;;;;;;;21.00;57.90;;;;;;5035143;28;19916;-60
2021/08/18 01:44:20;;;;;;;;;;;21.00;57.90;;;;;;5038506;28;19927;-61
2021/08/18 01:46:45;;;;;;;;;;;21.10;57.90;;;;;;5036265;28;19913;-61
2021/08/18 01:49:11;;;;;;;;;;;21.00;57.90;;;;;;5034940;28;20310;-60
2021/08/18 01:51:36;;;;;;;;;;;21.00;58.00;;;;;;5036314;28;19928;-60
2021/08/18 01:54:02;;;;;;;;;;;21.00;57.90;;;;;;5035567;28;20215;-61
2021/08/18 01:56:27;;;;;;;;;;;21.00;57.90;;;;;;5038038;28;19960;-61
2021/08/18 01:58:53;;;;;;;;;;;21.00;57.90;;;;;;5035768;28;19917;-60
2021/08/18 02:01:18;;;;;;;;;;;21.00;57.90;;;;;;5018638;28;19921;-60
2021/08/18 02:03:44;;;;;;;;;;;21.00;57.90;;;;;;5033364;28;20377;-62
2021/08/18 02:06:09;;;;;;;;;;;21.00;57.90;;;;;;5017894;28;20508;-62
2021/08/18 02:08:35;;;;;;;;;;;21.00;57.90;;;;;;5035400;28;19921;-61
2021/08/18 02:11:00;;;;;;;;;;;21.00;57.90;;;;;;5036766;28;19965;-62
2021/08/18 02:13:27;;;;;;;;;;;21.00;58.00;;;;;;5035308;28;19913;-61
2021/08/18 02:15:52;;;;;;;;;;;21.00;58.00;;;;;;5036831;28;19917;-61
2021/08/18 02:18:18;;;;;;;;;;;21.00;58.00;;;;;;5035832;28;19935;-62
2021/08/18 02:20:44;;;;;;;;;;;21.00;57.90;;;;;;5031977;28;19925;-61
2021/08/18 02:23:09;;;;;;;;;;;21.00;57.90;;;;;;5036852;28;19968;-60
2021/08/18 02:25:35;;;;;;;;;;;21.00;58.00;;;;;;5037547;28;19973;-61
2021/08/18 02:28:01;;;;;;;;;;;21.00;58.00;;;;;;5018578;28;19913;-61
2021/08/18 02:30:27;;;;;;;;;;;21.00;58.10;;;;;;5035808;28;19924;-61
2021/08/18 02:32:52;;;;;;;;;;;21.00;57.90;;;;;;5018929;28;20476;-60
2021/08/18 02:35:18;;;;;;;;;;;21.00;58.00;;;;;;5034924;28;19951;-61
2021/08/18 02:37:43;;;;;;;;;;;20.90;58.00;;;;;;5034853;28;19917;-61
2021/08/18 02:40:09;;;;;;;;;;;20.90;58.10;;;;;;5036086;28;19999;-61
2021/08/18 02:42:35;;;;;;;;;;;20.90;58.00;;;;;;5035804;28;19920;-61
2021/08/18 02:45:00;;;;;;;;;;;20.90;58.10;;;;;;5036718;28;19924;-60
2021/08/18 02:47:25;;;;;;;;;;;21.00;58.00;;;;;;5035925;28;19920;-61
2021/08/18 02:49:51;;;;;;;;;;;20.90;58.00;;;;;;5036058;28;19920;-62
2021/08/18 02:52:17;;;;;;;;;;;20.90;58.00;;;;;;5018102;28;20027;-61
2021/08/18 02:54:42;;;;;;;;;;;20.90;58.10;;;;;;5036016;28;21942;-61
2021/08/18 02:57:08;;;;;;;;;;;20.90;58.10;;;;;;5037457;28;19913;-61
2021/08/18 02:59:33;;;;;;;;;;;20.90;58.20;;;;;;5036737;28;19938;-62
2021/08/18 03:01:59;;;;;;;;;;;20.90;58.20;;;;;;5037622;28;19924;-62
2021/08/18 03:04:24;;;;;;;;;;;20.90;58.20;;;;;;5037653;28;20329;-62
2021/08/18 03:06:50;;;;;;;;;;;20.90;58.20;;;;;;5037223;28;20016;-62
2021/08/18 03:09:15;;;;;;;;;;;20.90;58.30;;;;;;5035672;28;19924;-61
2021/08/18 03:11:40;;;;;;;;;;;20.90;58.30;;;;;;5036482;28;19981;-60
2021/08/18 03:14:06;;;;;;;;;;;20.90;58.30;;;;;;5017603;28;19920;-60
2021/08/18 03:16:31;;;;;;;;;;;20.90;58.20;;;;;;5036283;28;19916;-60
2021/08/18 03:18:57;;;;;;;;;;;20.90;58.30;;;;;;5035514;28;20382;-61
2021/08/18 03:21:22;;;;;;;;;;;20.90;58.40;;;;;;5023242;28;19939;-60
2021/08/18 03:23:48;;;;;;;;;;;20.90;58.40;;;;;;5035110;28;19970;-61
2021/08/18 03:26:13;;;;;;;;;;;20.90;58.30;;;;;;5036231;28;19916;-60
2021/08/18 03:28:39;;;;;;;;;;;20.90;58.40;;;;;;5034587;28;19917;-61
2021/08/18 03:31:04;;;;;;;;;;;20.90;58.40;;;;;;5035940;28;19981;-61
2021/08/18 03:33:29;;;;;;;;;;;20.90;58.40;;;;;;5033342;28;20001;-61
2021/08/18 03:35:55;;;;;;;;;;;20.90;58.40;;;;;;5036257;28;19927;-62
2021/08/18 03:38:20;;;;;;;;;;;20.80;58.40;;;;;;5035076;28;20561;-62
2021/08/18 03:40:46;;;;;;;;;;;20.90;58.60;;;;;;5035462;28;19913;-62
2021/08/18 03:43:12;;;;;;;;;;;20.90;58.50;;;;;;5035706;28;20011;-61
2021/08/18 03:45:38;;;;;;;;;;;20.80;58.50;;;;;;5032081;28;20031;-61
2021/08/18 03:48:03;;;;;;;;;;;20.90;58.50;;;;;;5033960;28;19913;-60
2021/08/18 03:50:29;;;;;;;;;;;20.90;58.60;;;;;;5035716;28;20381;-61
2021/08/18 03:52:54;;;;;;;;;;;20.90;58.70;;;;;;5017346;28;19924;-61
2021/08/18 03:55:20;;;;;;;;;;;20.90;58.60;;;;;;5035963;28;19921;-60
2021/08/18 03:57:45;;;;;;;;;;;20.80;58.60;;;;;;5033759;28;19921;-62
2021/08/18 04:00:13;;;;;;;;;;;20.80;58.60;;;;;;5015552;28;19924;-61
2021/08/18 04:02:39;;;;;;;;;;;20.80;58.60;;;;;;5034279;28;19956;-62
2021/08/18 04:05:04;;;;;;;;;;;20.80;58.60;;;;;;5034998;28;19951;-61
2021/08/18 04:07:30;;;;;;;;;;;20.80;58.70;;;;;;5017870;28;19979;-62
2021/08/18 04:09:55;;;;;;;;;;;20.80;58.60;;;;;;5035464;28;19913;-61
2021/08/18 04:12:20;;;;;;;;;;;20.80;58.60;;;;;;5006884;28;20345;-60
2021/08/18 04:14:46;;;;;;;;;;;20.80;58.80;;;;;;5034966;28;20743;-61
2021/08/18 04:17:11;;;;;;;;;;;20.80;58.70;;;;;;5034769;28;19916;-61
2021/08/18 04:19:37;;;;;;;;;;;20.80;58.70;;;;;;5034114;28;20424;-61
2021/08/18 04:22:06;;;;;;;;;;;20.80;58.80;;;;;;5034922;28;19917;-61
2021/08/18 04:24:31;;;;;;;;;;;20.80;58.80;;;;;;5016535;28;19986;-61
2021/08/18 04:26:56;;;;;;;;;;;20.80;58.80;;;;;;5034307;28;19913;-61
2021/08/18 04:29:22;;;;;;;;;;;20.80;58.90;;;;;;5031915;28;19928;-61
2021/08/18 04:31:47;;;;;;;;;;;20.80;59.00;;;;;;5036864;28;19969;-60
2021/08/18 04:34:13;;;;;;;;;;;20.80;59.00;;;;;;5017266;28;19929;-61
2021/08/18 04:36:38;;;;;;;;;;;20.80;59.70;;;;;;5034957;28;19921;-60
2021/08/18 04:39:04;;;;;;;;;;;20.80;59.00;;;;;;5036863;28;19924;-62
2021/08/18 04:41:29;;;;;;;;;;;20.80;59.00;;;;;;5037752;28;19916;-60
2021/08/18 04:43:55;;;;;;;;;;;20.80;59.10;;;;;;5037699;28;19920;-62
2021/08/18 04:46:20;;;;;;;;;;;20.80;59.00;;;;;;5037231;28;19920;-61
2021/08/18 04:48:45;;;;;;;;;;;20.80;59.10;;;;;;5037317;28;19924;-61
2021/08/18 04:51:11;;;;;;;;;;;20.70;59.00;;;;;;5037901;28;20398;-61
2021/08/18 04:53:36;;;;;;;;;;;20.80;59.00;;;;;;5036808;28;19924;-61
2021/08/18 04:56:02;;;;;;;;;;;20.70;59.00;;;;;;5037318;28;19946;-62
2021/08/18 04:58:28;;;;;;;;;;;20.70;59.10;;;;;;5037464;28;21329;-60
2021/08/18 05:00:53;;;;;;;;;;;20.70;59.10;;;;;;5036825;28;19916;-61
2021/08/18 05:03:19;;;;;;;;;;;20.70;59.10;;;;;;5037042;28;19921;-60
2021/08/18 05:05:44;;;;;;;;;;;20.70;59.20;;;;;;5036733;28;20313;-61
2021/08/18 05:08:10;;;;;;;;;;;20.70;59.40;;;;;;5037359;28;19913;-61
2021/08/18 05:10:35;;;;;;;;;;;20.60;59.30;;;;;;5035820;28;20580;-60
2021/08/18 05:13:01;;;;;;;;;;;20.70;59.50;;;;;;5021994;28;19928;-61
2021/08/18 05:15:27;;;;;;;;;;;20.70;59.30;;;;;;5016242;28;19917;-61
2021/08/18 05:17:52;;;;;;;;;;;20.70;59.30;;;;;;5013076;28;20301;-59
2021/08/18 05:20:18;;;;;;;;;;;20.70;59.40;;;;;;4996866;28;19925;-61
2021/08/18 05:22:44;;;;;;;;;;;20.60;59.30;;;;;;5016913;28;19922;-61
2021/08/18 05:25:09;;;;;;;;;;;20.70;59.30;;;;;;4998387;28;19925;-60
2021/08/18 05:27:35;;;;;;;;;;;20.70;59.40;;;;;;5016370;28;20366;-60
2021/08/18 05:30:01;;;;;;;;;;;20.70;60.50;;;;;;5031107;28;19916;-60
2021/08/18 05:32:26;;;;;;;;;;;20.60;61.70;;;;;;5035277;28;21520;-62
2021/08/18 05:34:52;;;;;;;;;;;20.60;60.60;;;;;;5036565;28;19966;-60
2021/08/18 05:37:17;;;;;;;;;;;20.60;59.40;;;;;;5036796;28;19939;-61
2021/08/18 05:39:43;;;;;;;;;;;20.60;59.40;;;;;;5036537;28;19921;-59
2021/08/18 05:42:08;;;;;;;;;;;20.60;59.00;;;;;;5037118;28;19925;-60
2021/08/18 05:44:33;;;;;;;;;;;20.60;58.90;;;;;;5019345;28;20056;-56
2021/08/18 05:46:59;;;;;;;;;;;20.60;58.80;;;;;;5036571;28;19952;-60
2021/08/18 05:49:24;;;;;;;;;;;20.60;58.50;;;;;;5036521;28;20274;-61
2021/08/18 05:51:50;;;;;;;;;;;20.60;58.50;;;;;;5037745;28;20472;-60
2021/08/18 05:54:15;;;;;;;;;;;20.50;58.30;;;;;;5037529;28;19924;-59
2021/08/18 05:56:41;;;;;;;;;;;20.50;58.60;;;;;;5039678;23;19932;-63
2021/08/18 05:59:06;;;;;;;;;;;20.50;58.30;;;;;;5060686;28;20658;-63
2021/08/18 06:01:32;;;;;;;;;;;20.50;58.30;;;;;;5048616;28;20346;-64
2021/08/18 06:03:57;;;;;;;;;;;20.50;58.00;;;;;;5051456;28;19916;-63
2021/08/18 06:06:23;;;;;;;;;;;20.40;57.90;;;;;;5043626;28;19923;-64
2021/08/18 06:08:48;;;;;;;;;;;20.40;58.30;;;;;;5057596;28;19959;-63
2021/08/18 06:11:14;;;;;;;;;;;20.40;58.30;;;;;;5047518;28;20277;-64
2021/08/18 06:13:39;;;;;;;;;;;20.30;58.30;;;;;;5050027;28;19913;-63
2021/08/18 06:16:05;;;;;;;;;;;20.30;58.40;;;;;;5040542;28;19962;-63
2021/08/18 06:18:30;;;;;;;;;;;20.40;58.70;;;;;;5043278;28;19920;-64
2021/08/18 06:20:55;;;;;;;;;;;20.30;58.50;;;;;;5046978;28;20306;-62
2021/08/18 06:23:23;;;;;;;;;;;20.30;58.50;;;;;;5049055;28;20053;-63
2021/08/18 06:25:50;;;;;;;;;;;20.30;58.70;;;;;;5047691;28;20293;-62
2021/08/18 06:28:16;;;;;;;;;;;20.30;58.70;;;;;;5054561;28;19919;-62
2021/08/18 06:30:42;;;;;;;;;;;20.30;58.50;;;;;;5039320;28;19913;-63
2021/08/18 06:33:07;;;;;;;;;;;20.20;58.40;;;;;;5044178;28;19928;-63
2021/08/18 06:35:33;;;;;;;;;;;20.20;58.60;;;;;;5045956;28;19920;-63
2021/08/18 06:37:58;;;;;;;;;;;20.20;58.90;;;;;;5052694;28;20416;-62
2021/08/18 06:40:24;;;;;;;;;;;20.20;58.90;;;;;;5051465;28;19921;-64
2021/08/18 06:42:49;;;;;;;;;;;20.10;58.80;;;;;;5046400;28;20440;-63
2021/08/18 06:45:15;;;;;;;;;;;20.10;58.90;;;;;;5050097;28;20521;-63
2021/08/18 06:47:40;;;;;;;;;;;20.10;58.90;;;;;;5032689;28;19936;-64
2021/08/18 06:50:06;;;;;;;;;;;20.20;58.90;;;;;;5052530;28;19913;-63
2021/08/18 06:52:32;;;;;;;;;;;20.20;58.80;;;;;;5047367;28;19944;-64
2021/08/18 06:54:57;;;;;;;;;;;20.30;58.70;;;;;;5053721;28;20300;-63
2021/08/18 06:57:23;;;;;;;;;;;20.30;58.70;;;;;;5038168;28;20015;-63
2021/08/18 06:59:48;;;;;;;;;;;20.20;58.70;;;;;;5043797;28;19924;-63
2021/08/18 07:02:14;;;;;;;;;;;20.30;58.90;;;;;;5045713;28;19920;-63
2021/08/18 07:04:39;;;;;;;;;;;20.30;58.90;;;;;;5046336;28;19921;-63
2021/08/18 07:07:05;;;;;;;;;;;20.30;59.00;;;;;;5039518;28;20365;-63
2021/08/18 07:09:30;;;;;;;;;;;20.30;59.70;;;;;;5039113;28;19917;-62
2021/08/18 07:11:57;;;;;;;;;;;20.30;59.10;;;;;;5037112;28;21210;-62
2021/08/18 07:14:23;;;;;;;;;;;20.30;59.10;;;;;;5043420;28;19917;-62
2021/08/18 07:16:48;;;;;;;;;;;20.30;59.10;;;;;;5052964;28;20106;-62
2021/08/18 07:19:13;;;;;;;;;;;20.20;59.20;;;;;;5054869;28;19959;-63
2021/08/18 07:21:39;;;;;;;;;;;20.20;59.30;;;;;;5039387;28;19928;-62
2021/08/18 07:24:04;;;;;;;;;;;20.20;59.20;;;;;;5045383;28;20065;-68
2021/08/18 07:26:30;;;;;;;;;;;20.30;59.40;;;;;;5046113;28;19936;-62
2021/08/18 07:28:56;;;;;;;;;;;20.30;59.40;;;;;;5052771;28;20354;-64
2021/08/18 07:31:21;;;;;;;;;;;20.30;59.40;;;;;;5043987;28;20563;-63
2021/08/18 07:33:47;;;;;;;;;;;20.30;59.60;;;;;;5054099;28;20012;-63
2021/08/18 07:36:12;;;;;;;;;;;20.30;59.60;;;;;;5049685;28;19977;-63
2021/08/18 07:38:38;;;;;;;;;;;20.30;59.60;;;;;;5042206;28;20386;-62
2021/08/18 07:41:03;;;;;;;;;;;20.20;59.70;;;;;;5047966;28;19913;-63
2021/08/18 07:43:29;;;;;;;;;;;20.20;60.00;;;;;;5041308;28;19916;-63
2021/08/18 07:45:54;;;;;;;;;;;20.20;59.90;;;;;;5043929;28;20333;-63
2021/08/18 07:48:20;;;;;;;;;;;20.20;59.80;;;;;;5041965;28;20058;-61
2021/08/18 07:50:45;;;;;;;;;;;20.20;59.80;;;;;;5052423;28;19913;-62
2021/08/18 07:53:11;;;;;;;;;;;20.20;59.80;;;;;;5050663;28;19966;-63
2021/08/18 07:55:36;;;;;;;;;;;20.20;59.80;;;;;;5053143;28;20138;-63
2021/08/18 07:58:01;;;;;;;;;;;20.30;60.10;;;;;;5058195;28;20019;-63
2021/08/18 08:00:27;;;;;;;;;;;20.20;60.30;;;;;;5050154;28;19916;-62
2021/08/18 08:02:52;;;;;;;;;;;20.20;60.20;;;;;;5047108;28;19913;-62
2021/08/18 08:05:18;;;;;;;;;;;20.20;60.30;;;;;;5056551;28;20001;-61
2021/08/18 08:07:43;;;;;;;;;;;20.20;60.40;;;;;;5048510;28;19916;-62
2021/08/18 08:10:09;;;;;;;;;;;20.20;60.40;;;;;;5049649;28;19912;-63
2021/08/18 08:12:35;;;;;;;;;;;20.20;60.60;;;;;;5044837;28;19917;-64
2021/08/18 08:15:00;;;;;;;;;;;20.20;60.80;;;;;;5049458;28;19919;-64
2021/08/18 08:17:26;;;;;;;;;;;20.20;60.90;;;;;;5047297;28;19920;-63
2021/08/18 08:19:51;;;;;;;;;;;20.20;61.00;;;;;;5052330;28;19966;-62
2021/08/18 08:22:17;;;;;;;;;;;20.20;61.10;;;;;;5047583;28;19920;-62
2021/08/18 08:24:42;;;;;;;;;;;20.20;61.20;;;;;;5054849;28;19924;-63
2021/08/18 08:27:08;;;;;;;;;;;20.20;61.90;;;;;;5045575;28;19920;-62
2021/08/18 08:29:33;;;;;;;;;;;20.20;61.40;;;;;;5047879;28;19917;-64
2021/08/18 08:31:58;;;;;;;;;;;20.20;61.70;;;;;;5032118;28;20301;-63
2021/08/18 08:34:24;;;;;;;;;;;20.20;61.60;;;;;;5055198;28;20224;-62
2021/08/18 08:36:49;;;;;;;;;;;20.10;61.60;;;;;;5047856;28;19916;-64
2021/08/18 08:39:15;;;;;;;;;;;20.20;61.80;;;;;;5045707;28;19917;-64
2021/08/18 08:41:41;;;;;;;;;;;20.20;61.90;;;;;;5047320;28;20069;-62
2021/08/18 08:44:07;;;;;;;;;;;20.20;62.00;;;;;;5052301;28;19974;-63
2021/08/18 08:46:33;;;;;;;;;;;20.10;62.00;;;;;;5048574;28;19913;-63
2021/08/18 08:48:58;;;;;;;;;;;20.20;62.20;;;;;;5050109;28;19971;-62
2021/08/18 08:51:23;;;;;;;;;;;20.20;62.20;;;;;;5045584;28;20001;-64
2021/08/18 08:53:49;;;;;;;;;;;20.20;62.20;;;;;;5058854;28;19990;-63
2021/08/18 08:56:14;;;;;;;;;;;20.20;62.40;;;;;;5050411;28;19913;-64
2021/08/18 08:58:40;;;;;;;;;;;20.20;62.50;;;;;;5047192;28;20365;-64
2021/08/18 09:01:05;;;;;;;;;;;20.10;62.50;;;;;;5062128;28;19938;-62
2021/08/18 09:03:32;;;;;;;;;;;20.10;62.60;;;;;;5049744;28;19973;-64
2021/08/18 09:06:04;;;;;;;;;;;20.20;62.70;;;;;;5052845;28;19920;-63
2021/08/18 09:08:29;;;;;;;;;;;20.20;62.70;;;;;;5054110;28;19913;-64
2021/08/18 09:11:08;;;;;;;;;;;20.20;62.80;;;;;;5050727;28;19966;-64
2021/08/18 09:13:54;;;;;;;;;;;20.20;62.90;;;;;;5052966;28;19938;-64
2021/08/18 09:16:21;;;;;;;;;;;20.20;62.90;;;;;;5041995;28;19917;-62
2021/08/18 09:18:46;;;;;;;;;;;20.10;63.00;;;;;;5061630;28;20062;-63
2021/08/18 09:21:30;;;;;;;;;;;20.20;63.10;;;;;;5060676;28;20437;-62
2021/08/18 09:24:11;;;;;;;;;;;20.20;62.90;;;;;;5060530;28;19920;-63
2021/08/18 09:26:36;;;;;;;;;;;20.20;63.10;;;;;;5055268;28;19939;-64
2021/08/18 09:29:02;;;;;;;;;;;20.10;63.00;;;;;;5062500;28;20362;-63
2021/08/18 09:31:27;;;;;;;;;;;20.10;63.10;;;;;;5063434;28;19939;-64
2021/08/18 09:33:56;;;;;;;;;;;20.10;63.20;;;;;;5062709;28;19917;-62
2021/08/18 09:36:21;;;;;;;;;;;20.20;63.10;;;;;;5062669;28;19917;-63
2021/08/18 09:38:47;;;;;;;;;;;20.20;63.30;;;;;;5061986;28;20257;-63
2021/08/18 09:41:13;;;;;;;;;;;20.20;63.30;;;;;;5062146;28;20081;-62
2021/08/18 09:43:39;;;;;;;;;;;20.10;63.40;;;;;;5062961;28;20378;-63
2021/08/18 09:46:04;;;;;;;;;;;20.10;63.50;;;;;;5062196;28;20427;-63
2021/08/18 09:48:30;;;;;;;;;;;20.10;63.40;;;;;;5027994;28;19917;-63
2021/08/18 09:51:03;;;;;;;;;;;20.10;63.40;;;;;;5040254;28;19942;-63
2021/08/18 09:53:31;;;;;;;;;;;20.10;63.50;;;;;;5040719;28;20352;-63
2021/08/18 09:55:57;;;;;;;;;;;20.10;63.60;;;;;;5042992;28;19921;-63
2021/08/18 09:58:23;;;;;;;;;;;20.10;63.50;;;;;;5061773;28;19928;-62
2021/08/18 10:00:49;;;;;;;;;;;20.10;63.50;;;;;;5061815;28;20278;-63
2021/08/18 10:03:14;;;;;;;;;;;20.10;63.50;;;;;;5021338;28;19921;-65
2021/08/18 10:05:40;;;;;;;;;;;20.10;63.60;;;;;;5017327;28;20074;-63
2021/08/18 10:08:06;;;;;;;;;;;20.10;63.70;;;;;;5056753;28;19917;-64
2021/08/18 10:10:32;;;;;;;;;;;20.10;63.60;;;;;;5059694;28;19923;-64
2021/08/18 10:12:59;;;;;;;;;;;20.10;63.50;;;;;;5061540;28;19999;-64
2021/08/18 10:15:24;;;;;;;;;;;20.10;63.90;;;;;;5060829;28;19912;-63
2021/08/18 10:17:49;;;;;;;;;;;20.10;63.80;;;;;;5047993;28;20377;-63
2021/08/18 10:20:15;;;;;;;;;;;20.10;63.60;;;;;;5035672;28;19920;-63
2021/08/18 10:22:40;;;;;;;;;;;20.10;63.70;;;;;;5044474;28;19958;-62
2021/08/18 10:25:25;;;;;;;;;;;20.10;63.70;;;;;;5058752;28;20337;-63
2021/08/18 10:27:50;;;;;;;;;;;20.10;63.60;;;;;;5058673;28;19962;-63
2021/08/18 10:30:23;;;;;;;;;;;20.10;63.60;;;;;;5059737;28;19921;-63
2021/08/18 10:32:48;;;;;;;;;;;20.10;63.50;;;;;;5060849;28;20472;-63
2021/08/18 10:35:32;;;;;;;;;;;20.10;63.60;;;;;;5061334;28;19913;-63
2021/08/18 10:38:16;;;;;;;;;;;20.10;63.60;;;;;;5060333;28;20401;-63
2021/08/18 10:40:42;;;;;;;;;;;20.10;63.70;;;;;;5061169;28;19913;-64
2021/08/18 10:43:07;;;;;;;;;;;20.10;63.80;;;;;;5059359;28;19931;-63
2021/08/18 10:45:39;;;;;;;;;;;20.10;63.50;;;;;;5059437;28;20665;-63
2021/08/18 10:48:04;;;;;;;;;;;20.10;63.70;;;;;;5048682;28;19998;-64
2021/08/18 10:50:40;;;;;;;;;;;20.10;63.70;;;;;;5059954;28;19951;-62
2021/08/18 10:53:20;;;;;;;;;;;20.10;63.70;;;;;;5060345;28;19912;-64
2021/08/18 10:55:45;;;;;;;;;;;20.10;63.60;;;;;;5014045;28;19971;-64
2021/08/18 10:58:25;;;;;;;;;;;20.10;63.50;;;;;;5055119;28;20393;-64
2021/08/18 11:00:51;;;;;;;;;;;20.10;63.60;;;;;;5045043;28;20023;-63
2021/08/18 11:03:16;;;;;;;;;;;20.10;63.70;;;;;;5049163;28;19923;-64
2021/08/18 11:05:43;;;;;;;;;;;20.10;63.80;;;;;;5051059;28;19912;-63
2021/08/18 11:08:14;;;;;;;;;;;20.10;63.60;;;;;;5029163;28;19916;-64
2021/08/18 11:10:41;;;;;;;;;;;20.10;63.80;;;;;;5049852;28;20174;-64
2021/08/18 11:13:07;;;;;;;;;;;20.10;63.70;;;;;;5047692;28;20039;-64
2021/08/18 11:15:32;;;;;;;;;;;20.10;63.30;;;;;;5040194;28;19913;-62
2021/08/18 11:17:58;;;;;;;;;;;20.10;63.80;;;;;;5060211;28;19926;-63
2021/08/18 11:20:24;;;;;;;;;;;20.10;63.70;;;;;;5051493;28;19921;-64
2021/08/18 11:22:52;;;;;;;;;;;20.10;63.60;;;;;;5051984;28;19919;-64
2021/08/18 11:25:19;;;;;;;;;;;20.10;63.60;;;;;;5050157;28;19977;-63
2021/08/18 11:27:51;;;;;;;;;;;20.10;64.00;;;;;;5054629;28;19916;-63
2021/08/18 11:30:16;;;;;;;;;;;20.10;63.70;;;;;;5028693;28;19917;-64
2021/08/18 11:32:42;;;;;;;;;;;20.10;63.60;;;;;;5049240;28;19919;-63
2021/08/18 11:35:08;;;;;;;;;;;20.10;63.60;;;;;;5051237;28;20287;-63
2021/08/18 11:37:33;;;;;;;;;;;20.10;63.50;;;;;;5050131;28;20382;-63
2021/08/18 11:40:00;;;;;;;;;;;20.10;63.60;;;;;;5053690;28;19917;-63
2021/08/18 11:42:26;;;;;;;;;;;20.10;63.50;;;;;;5043445;28;19975;-63
2021/08/18 11:45:04;;;;;;;;;;;20.00;63.50;;;;;;5049933;28;20352;-64
2021/08/18 11:47:30;;;;;;;;;;;20.10;63.40;;;;;;5055113;28;19951;-64
2021/08/18 11:49:55;;;;;;;;;;;20.00;63.50;;;;;;5047972;28;19917;-64
2021/08/18 11:52:21;;;;;;;;;;;20.00;63.80;;;;;;5051223;28;19926;-62
2021/08/18 11:54:53;;;;;;;;;;;20.00;63.50;;;;;;5053259;28;19912;-64
2021/08/18 11:57:19;;;;;;;;;;;20.10;63.60;;;;;;5040068;22;20028;-60
2021/08/18 11:59:47;;;;;;;;;;;20.10;63.60;;;;;;4996754;28;20016;-60
2021/08/18 12:02:13;;;;;;;;;;;20.10;63.60;;;;;;4996167;28;20555;-62
2021/08/18 12:04:38;;;;;;;;;;;20.10;63.50;;;;;;4995837;28;19922;-60
2021/08/18 12:07:08;;;;;;;;;;;20.00;63.30;;;;;;4997022;28;19998;-60
2021/08/18 12:09:33;;;;;;;;;;;20.00;63.50;;;;;;4995467;28;19917;-61
2021/08/18 12:12:06;;;;;;;;;;;20.00;63.60;;;;;;4996884;28;20508;-60
2021/08/18 12:14:36;;;;;;;;;;;20.00;63.50;;;;;;4995779;28;19914;-60
2021/08/18 12:17:01;;;;;;;;;;;20.10;63.60;;;;;;4996227;28;19917;-60
2021/08/18 12:19:27;;;;;;;;;;;20.10;63.60;;;;;;4997377;28;20449;-60
2021/08/18 12:22:05;;;;;;;;;;;20.10;63.50;;;;;;4996163;28;19918;-59
2021/08/18 12:24:30;;;;;;;;;;;20.10;63.50;;;;;;4996114;28;19949;-61
2021/08/18 12:26:56;;;;;;;;;;;20.10;63.60;;;;;;4995438;28;19945;-60
2021/08/18 12:29:22;;;;;;;;;;;20.10;63.60;;;;;;4997705;28;19913;-60
2021/08/18 12:31:51;;;;;;;;;;;20.00;63.40;;;;;;4997004;28;20009;-61
2021/08/18 12:34:16;;;;;;;;;;;20.10;63.40;;;;;;4995409;28;21130;-60
2021/08/18 12:36:41;;;;;;;;;;;20.00;63.60;;;;;;4996617;28;19918;-61
2021/08/18 12:39:07;;;;;;;;;;;20.00;63.30;;;;;;4996960;28;19983;-60
2021/08/18 12:41:33;;;;;;;;;;;20.00;63.40;;;;;;4997647;28;20330;-61
2021/08/18 12:44:02;;;;;;;;;;;20.10;63.80;;;;;;4996663;28;19940;-59
2021/08/18 12:46:27;;;;;;;;;;;20.00;63.60;;;;;;4996567;28;19952;-60
2021/08/18 12:48:53;;;;;;;;;;;20.00;63.50;;;;;;4994701;28;20422;-61
2021/08/18 12:51:18;;;;;;;;;;;20.10;63.50;;;;;;4996742;28;19921;-59
2021/08/18 12:53:45;;;;;;;;;;;20.10;63.30;;;;;;4997887;28;19924;-60
2021/08/18 12:56:11;;;;;;;;;;;20.00;63.30;;;;;;4995957;28;19917;-61
2021/08/18 12:58:36;;;;;;;;;;;20.00;63.30;;;;;;4997394;28;19980;-59
2021/08/18 13:01:02;;;;;;;;;;;20.00;63.20;;;;;;4996156;28;19923;-60
2021/08/18 13:03:27;;;;;;;;;;;20.00;63.00;;;;;;4996418;28;20398;-61
2021/08/18 13:05:53;;;;;;;;;;;20.00;63.00;;;;;;4997351;28;19949;-58
2021/08/18 13:08:19;;;;;;;;;;;20.00;63.20;;;;;;4997241;28;19925;-60
2021/08/18 13:10:45;;;;;;;;;;;20.00;63.20;;;;;;4998175;28;19921;-60
2021/08/18 13:13:10;;;;;;;;;;;20.00;63.40;;;;;;4995532;28;20306;-61
2021/08/18 13:15:36;;;;;;;;;;;20.00;63.20;;;;;;4996405;28;20409;-61
2021/08/18 13:18:01;;;;;;;;;;;20.00;63.30;;;;;;4993852;28;19917;-61
2021/08/18 13:20:27;;;;;;;;;;;20.10;63.40;;;;;;4993453;28;19921;-60
2021/08/18 13:22:52;;;;;;;;;;;20.10;63.30;;;;;;4994139;28;19924;-61
2021/08/18 13:25:18;;;;;;;;;;;20.00;63.30;;;;;;4994093;28;20690;-61
2021/08/18 13:27:43;;;;;;;;;;;20.10;63.10;;;;;;4992861;28;19917;-61
2021/08/18 13:30:10;;;;;;;;;;;20.10;63.10;;;;;;4993284;28;19918;-60
2021/08/18 13:32:36;;;;;;;;;;;20.10;63.10;;;;;;4995481;28;19918;-60
2021/08/18 13:35:01;;;;;;;;;;;20.10;63.10;;;;;;4997331;28;20001;-61
2021/08/18 13:37:27;;;;;;;;;;;20.10;63.00;;;;;;4996695;28;19937;-61
2021/08/18 13:39:52;;;;;;;;;;;20.10;63.20;;;;;;4995639;28;20210;-59
2021/08/18 13:42:18;;;;;;;;;;;20.10;63.20;;;;;;4998652;28;19914;-61
2021/08/18 13:44:43;;;;;;;;;;;20.00;63.00;;;;;;4996484;28;19983;-59
2021/08/18 13:47:08;;;;;;;;;;;20.00;62.90;;;;;;4997345;28;19928;-59
2021/08/18 13:49:34;;;;;;;;;;;20.10;63.00;;;;;;4996735;28;19914;-59
2021/08/18 13:51:59;;;;;;;;;;;20.10;63.10;;;;;;4998055;28;20012;-60
2021/08/18 13:54:25;;;;;;;;;;;20.10;63.10;;;;;;4997392;28;19918;-61
2021/08/18 13:56:51;;;;;;;;;;;20.10;63.10;;;;;;4997411;28;20680;-60
2021/08/18 13:59:16;;;;;;;;;;;20.10;63.10;;;;;;4995675;28;19968;-61
2021/08/18 14:01:42;;;;;;;;;;;20.00;63.00;;;;;;4995784;28;20656;-61
2021/08/18 14:04:07;;;;;;;;;;;20.10;63.10;;;;;;4995542;28;20007;-60
2021/08/18 14:06:33;;;;;;;;;;;20.00;63.00;;;;;;4996348;28;19913;-61
2021/08/18 14:09:00;;;;;;;;;;;20.10;63.10;;;;;;4996147;28;19971;-61